createdAt,value
2023-04-02T00:00:06.216Z,7.37
2023-04-02T00:02:48.020Z,7.30
2023-04-02T00:05:51.671Z,7.28
2023-04-02T00:08:26.823Z,7.30
2023-04-02T00:10:57.231Z,7.28
2023-04-02T00:13:31.690Z,7.31
2023-04-02T00:16:00.794Z,7.24
2023-04-02T00:18:29.208Z,7.19
2023-04-02T00:21:06.309Z,7.20
2023-04-02T00:23:37.258Z,7.15
2023-04-02T00:26:07.955Z,7.15
2023-04-02T00:28:36.400Z,7.15
2023-04-02T00:31:04.258Z,7.13
2023-04-02T00:33:33.000Z,7.25
2023-04-02T00:36:00.994Z,7.19
2023-04-02T00:38:33.242Z,7.09
2023-04-02T00:41:04.947Z,7.07
2023-04-02T00:43:37.056Z,7.08
2023-04-02T00:46:14.233Z,7.04
2023-04-02T00:48:51.348Z,7.03
2023-04-02T00:51:23.344Z,7.06
2023-04-02T00:53:55.117Z,7.08
2023-04-02T00:56:28.537Z,7.02
2023-04-02T00:58:58.231Z,7.14
2023-04-02T01:01:29.030Z,7.16
2023-04-02T01:03:59.400Z,7.15
2023-04-02T01:06:31.259Z,7.06
2023-04-02T01:09:13.210Z,7.16
2023-04-02T01:12:11.540Z,7.17
2023-04-02T01:14:50.404Z,7.11
2023-04-02T01:17:30.566Z,7.06
2023-04-02T01:20:24.909Z,7.08
2023-04-02T01:22:58.636Z,7.07
2023-04-02T01:25:33.319Z,7.03
2023-04-02T01:28:10.622Z,7.08
2023-04-02T01:30:41.559Z,7.09
2023-04-02T01:33:09.531Z,7.04
2023-04-02T01:35:45.965Z,7.00
2023-04-02T01:38:21.196Z,6.98
2023-04-02T01:40:59.218Z,7.05
2023-04-02T01:43:34.946Z,6.96
2023-04-02T01:46:25.804Z,6.99
2023-04-02T01:48:54.542Z,6.98
2023-04-02T01:51:30.825Z,6.93
2023-04-02T01:54:01.728Z,7.04
2023-04-02T01:56:31.013Z,7.00
2023-04-02T01:59:00.053Z,6.91
2023-04-02T02:01:37.316Z,6.96
2023-04-02T02:04:05.563Z,6.89
2023-04-02T02:06:33.555Z,6.91
2023-04-02T02:09:05.179Z,6.95
2023-04-02T02:11:36.524Z,6.94
2023-04-02T02:14:12.033Z,6.90
2023-04-02T02:16:43.148Z,7.07
2023-04-02T02:19:24.288Z,7.02
2023-04-02T02:21:54.997Z,7.02
2023-04-02T02:24:26.735Z,7.01
2023-04-02T02:27:06.393Z,7.04
2023-04-02T02:29:38.730Z,6.89
2023-04-02T02:32:10.715Z,6.96
2023-04-02T02:34:43.101Z,6.97
2023-04-02T02:37:16.039Z,7.01
2023-04-02T02:39:48.820Z,7.07
2023-04-02T02:42:24.902Z,6.98
2023-04-02T02:44:56.231Z,6.95
2023-04-02T02:47:29.531Z,7.01
2023-04-02T02:50:01.355Z,7.00
2023-04-02T02:52:32.701Z,7.14
2023-04-02T02:55:09.187Z,7.05
2023-04-02T02:57:57.294Z,7.08
2023-04-02T03:00:29.570Z,6.96
2023-04-02T03:03:01.819Z,7.15
2023-04-02T03:05:32.377Z,7.01
2023-04-02T03:08:13.558Z,7.13
2023-04-02T03:10:48.277Z,7.02
2023-04-02T03:13:22.980Z,7.00
2023-04-02T03:15:59.829Z,6.92
2023-04-02T03:18:37.358Z,6.97
2023-04-02T03:21:13.840Z,6.96
2023-04-02T03:23:45.419Z,7.04
2023-04-02T03:26:19.541Z,7.04
2023-04-02T03:28:53.431Z,7.09
2023-04-02T03:31:27.488Z,7.11
2023-04-02T03:34:01.059Z,7.20
2023-04-02T03:36:34.240Z,7.24
2023-04-02T03:39:11.336Z,7.10
2023-04-02T03:41:45.012Z,7.00
2023-04-02T03:44:23.966Z,7.04
2023-04-02T03:46:58.194Z,7.09
2023-04-02T03:49:37.511Z,7.03
2023-04-02T03:52:11.541Z,6.97
2023-04-02T03:54:54.046Z,6.94
2023-04-02T03:57:30.736Z,7.02
2023-04-02T04:00:06.118Z,6.94
2023-04-02T04:02:46.557Z,6.89
2023-04-02T04:05:25.550Z,6.90
2023-04-02T04:07:59.213Z,6.85
2023-04-02T04:10:29.048Z,6.80
2023-04-02T04:13:02.890Z,6.80
2023-04-02T04:15:35.413Z,6.75
2023-04-02T04:18:11.633Z,6.74
2023-04-02T04:20:56.401Z,6.73
2023-04-02T04:23:31.400Z,6.65
2023-04-02T04:26:09.417Z,6.60
2023-04-02T04:28:45.228Z,6.60
2023-04-02T04:31:21.115Z,6.70
2023-04-02T04:33:55.911Z,6.65
2023-04-02T04:36:32.911Z,6.64
2023-04-02T04:39:09.476Z,6.70
2023-04-02T04:41:40.491Z,6.60
2023-04-02T04:44:16.125Z,6.66
2023-04-02T04:46:52.275Z,6.61
2023-04-02T04:49:26.455Z,6.63
2023-04-02T04:51:59.758Z,6.60
2023-04-02T04:54:29.193Z,6.64
2023-04-02T04:57:03.672Z,6.48
2023-04-02T04:59:36.818Z,6.43
2023-04-02T05:02:11.618Z,6.45
2023-04-02T05:04:42.337Z,6.43
2023-04-02T05:07:20.613Z,6.46
2023-04-02T05:09:58.192Z,6.37
2023-04-02T05:12:34.698Z,6.48
2023-04-02T05:15:11.694Z,6.55
2023-04-02T05:17:46.880Z,6.75
2023-04-02T05:20:22.736Z,6.93
2023-04-02T05:22:58.876Z,6.87
2023-04-02T05:25:28.808Z,6.81
2023-04-02T05:28:06.727Z,6.88
2023-04-02T05:30:49.436Z,6.91
2023-04-02T05:33:24.940Z,6.93
2023-04-02T05:36:03.335Z,6.86
2023-04-02T05:38:37.951Z,6.83
2023-04-02T05:41:13.382Z,6.91
2023-04-02T05:43:47.014Z,6.75
2023-04-02T05:46:18.722Z,6.88
2023-04-02T05:48:54.092Z,7.07
2023-04-02T05:51:27.049Z,7.06
2023-04-02T05:54:00.296Z,7.06
2023-04-02T05:56:34.122Z,6.83
2023-04-02T05:59:10.566Z,6.63
2023-04-02T06:01:45.620Z,6.60
2023-04-02T06:04:30.594Z,6.70
2023-04-02T06:07:02.070Z,6.65
2023-04-02T06:09:39.443Z,6.58
2023-04-02T06:12:20.954Z,6.67
2023-04-02T06:14:49.240Z,6.60
2023-04-02T06:17:19.866Z,6.62
2023-04-02T06:19:49.327Z,6.66
2023-04-02T06:22:25.327Z,6.64
2023-04-02T06:25:03.654Z,6.70
2023-04-02T06:27:40.377Z,6.72
2023-04-02T06:30:18.688Z,6.83
2023-04-02T06:32:49.692Z,6.91
2023-04-02T06:35:22.250Z,6.84
2023-04-02T06:38:03.873Z,6.78
2023-04-02T06:40:42.665Z,6.70
2023-04-02T06:43:33.412Z,6.76
2023-04-02T06:46:29.666Z,6.89
2023-04-02T06:49:16.315Z,6.82
2023-04-02T06:51:46.383Z,6.87
2023-04-02T06:54:17.038Z,6.91
2023-04-02T06:56:52.561Z,6.91
2023-04-02T06:59:27.449Z,7.03
2023-04-02T07:02:00.419Z,7.21
2023-04-02T07:04:28.624Z,7.15
2023-04-02T07:06:56.533Z,7.15
2023-04-02T07:09:27.694Z,7.20
2023-04-02T07:12:00.443Z,7.94
2023-04-02T07:14:28.337Z,7.61
2023-04-02T07:16:56.418Z,8.27
2023-04-02T07:19:24.439Z,8.45
2023-04-02T07:21:56.453Z,8.20
2023-04-02T07:24:26.747Z,7.94
2023-04-02T07:26:54.702Z,8.15
2023-04-02T07:29:23.876Z,8.07
2023-04-02T07:31:52.980Z,8.27
2023-04-02T07:34:21.052Z,8.36
2023-04-02T07:36:49.188Z,8.19
2023-04-02T07:39:17.061Z,8.28
2023-04-02T07:41:55.080Z,8.24
2023-04-02T07:44:24.547Z,8.32
2023-04-02T07:46:52.637Z,8.27
2023-04-02T07:49:21.432Z,8.19
2023-04-02T07:51:49.339Z,8.18
2023-04-02T07:54:17.335Z,8.18
2023-04-02T07:56:45.169Z,8.24
2023-04-02T07:59:13.005Z,8.15
2023-04-02T08:01:43.131Z,8.33
2023-04-02T08:04:19.617Z,8.31
2023-04-02T08:06:48.254Z,8.19
2023-04-02T08:09:16.720Z,8.42
2023-04-02T08:11:46.395Z,8.73
2023-04-02T08:14:14.499Z,8.98
2023-04-02T08:16:49.929Z,8.66
2023-04-02T08:19:18.766Z,8.78
2023-04-02T08:21:48.118Z,8.77
2023-04-02T08:24:17.976Z,8.78
2023-04-02T08:26:46.302Z,9.02
2023-04-02T08:29:14.325Z,8.93
2023-04-02T08:31:44.648Z,9.08
2023-04-02T08:34:14.117Z,8.84
2023-04-02T08:36:44.346Z,8.96
2023-04-02T08:39:12.643Z,8.92
2023-04-02T08:41:46.140Z,8.70
2023-04-02T08:44:23.445Z,8.76
2023-04-02T08:46:57.181Z,8.79
2023-04-02T08:49:31.928Z,8.96
2023-04-02T08:52:00.716Z,9.01
2023-04-02T08:54:30.608Z,8.91
2023-04-02T08:57:03.404Z,8.96
2023-04-02T08:59:35.196Z,8.90
2023-04-02T09:02:28.727Z,8.96
2023-04-02T09:05:01.556Z,9.03
2023-04-02T09:07:29.587Z,9.16
2023-04-02T09:09:58.227Z,9.48
2023-04-02T09:12:28.987Z,9.43
2023-04-02T09:15:08.339Z,9.51
2023-04-02T09:17:50.758Z,9.41
2023-04-02T09:20:27.592Z,9.31
2023-04-02T09:22:56.612Z,9.33
2023-04-02T09:25:27.101Z,9.41
2023-04-02T09:27:58.633Z,9.51
2023-04-02T09:30:41.916Z,9.69
2023-04-02T09:33:09.963Z,9.64
2023-04-02T09:35:56.098Z,9.78
2023-04-02T09:38:28.588Z,9.49
2023-04-02T09:41:00.973Z,9.40
2023-04-02T09:43:30.321Z,9.47
2023-04-02T09:46:01.597Z,9.33
2023-04-02T09:48:33.648Z,9.44
2023-04-02T09:51:08.799Z,9.53
2023-04-02T09:53:40.474Z,9.66
2023-04-02T09:56:12.890Z,9.97
2023-04-02T09:58:41.944Z,9.89
2023-04-02T10:01:28.163Z,9.84
2023-04-02T10:03:56.636Z,9.82
2023-04-02T10:06:27.223Z,9.91
2023-04-02T10:08:55.416Z,10.12
2023-04-02T10:11:36.442Z,10.37
2023-04-02T10:14:16.071Z,10.53
2023-04-02T10:16:49.665Z,10.59
2023-04-02T10:19:26.463Z,10.61
2023-04-02T10:21:59.244Z,10.78
2023-04-02T10:24:28.723Z,10.96
2023-04-02T10:27:04.699Z,10.99
2023-04-02T10:29:45.720Z,10.64
2023-04-02T10:32:20.018Z,10.77
2023-04-02T10:34:55.936Z,10.67
2023-04-02T10:37:52.110Z,10.70
2023-04-02T10:40:26.008Z,10.99
2023-04-02T10:43:07.502Z,10.97
2023-04-02T10:45:43.505Z,10.97
2023-04-02T10:48:21.264Z,10.53
2023-04-02T10:50:54.089Z,10.28
2023-04-02T10:53:30.162Z,10.86
2023-04-02T10:56:03.639Z,10.80
2023-04-02T10:58:35.484Z,11.05
2023-04-02T11:01:11.297Z,11.36
2023-04-02T11:03:44.871Z,11.35
2023-04-02T11:06:18.644Z,11.42
2023-04-02T11:08:51.458Z,11.69
2023-04-02T11:11:23.391Z,11.90
2023-04-02T11:13:57.246Z,11.87
2023-04-02T11:16:27.293Z,11.70
2023-04-02T11:19:27.097Z,11.61
2023-04-02T11:22:00.254Z,11.41
2023-04-02T11:24:49.763Z,11.43
2023-04-02T11:27:21.673Z,11.45
2023-04-02T11:29:51.563Z,11.08
2023-04-02T11:32:33.226Z,11.15
2023-04-02T11:35:27.299Z,10.87
2023-04-02T11:37:56.180Z,10.98
2023-04-02T11:40:51.400Z,10.99
2023-04-02T11:43:48.894Z,11.16
2023-04-02T11:46:39.544Z,11.34
2023-04-02T11:49:36.934Z,11.84
2023-04-02T11:52:12.249Z,11.56
2023-04-02T11:54:41.798Z,11.69
2023-04-02T11:57:24.908Z,11.86
2023-04-02T12:00:13.345Z,12.09
2023-04-02T12:02:59.477Z,11.94
2023-04-02T12:05:37.753Z,11.70
2023-04-02T12:08:25.306Z,11.75
2023-04-02T12:10:57.559Z,11.51
2023-04-02T12:13:54.655Z,11.32
2023-04-02T12:16:25.190Z,11.31
2023-04-02T12:18:56.277Z,11.48
2023-04-02T12:21:26.385Z,11.40
2023-04-02T12:23:57.886Z,11.60
2023-04-02T12:26:32.011Z,11.72
2023-04-02T12:29:28.760Z,11.77
2023-04-02T12:32:01.319Z,12.28
2023-04-02T12:34:31.074Z,12.32
2023-04-02T12:37:02.617Z,12.41
2023-04-02T12:39:36.529Z,12.37
2023-04-02T12:42:04.777Z,11.84
2023-04-02T12:44:34.238Z,11.73
2023-04-02T12:47:07.133Z,11.34
2023-04-02T12:49:40.816Z,11.00
2023-04-02T12:52:11.617Z,11.48
2023-04-02T12:54:49.650Z,11.44
2023-04-02T12:57:33.649Z,11.43
2023-04-02T13:00:25.764Z,11.61
2023-04-02T13:03:02.942Z,11.93
2023-04-02T13:05:37.242Z,11.56
2023-04-02T13:08:08.449Z,11.38
2023-04-02T13:10:37.063Z,11.65
2023-04-02T13:13:06.500Z,11.60
2023-04-02T13:15:37.107Z,11.06
2023-04-02T13:18:15.812Z,11.02
2023-04-02T13:20:44.963Z,10.71
2023-04-02T13:23:32.777Z,10.44
2023-04-02T13:26:11.397Z,9.81
2023-04-02T13:28:39.481Z,9.19
2023-04-02T13:31:14.613Z,8.97
2023-04-02T13:33:42.782Z,8.77
2023-04-02T13:36:17.072Z,8.89
2023-04-02T13:38:44.890Z,9.01
2023-04-02T13:41:22.450Z,9.05
2023-04-02T13:43:51.215Z,9.00
2023-04-02T13:46:24.022Z,9.31
2023-04-02T13:48:53.039Z,9.40
2023-04-02T13:51:23.985Z,9.79
2023-04-02T13:53:55.532Z,10.16
2023-04-02T13:56:24.637Z,10.43
2023-04-02T13:58:53.397Z,10.98
2023-04-02T14:01:25.115Z,11.27
2023-04-02T14:03:54.495Z,11.32
2023-04-02T14:06:31.930Z,10.98
2023-04-02T14:09:05.002Z,10.65
2023-04-02T14:11:47.383Z,10.43
2023-04-02T14:14:39.830Z,10.15
2023-04-02T14:17:21.243Z,9.54
2023-04-02T14:20:04.386Z,9.04
2023-04-02T14:22:46.958Z,8.68
2023-04-02T14:25:24.149Z,8.45
2023-04-02T14:28:03.728Z,8.09
2023-04-02T14:30:44.174Z,8.01
2023-04-02T14:33:27.226Z,8.06
2023-04-02T14:36:06.126Z,7.90
2023-04-02T14:38:40.641Z,8.10
2023-04-02T14:41:17.685Z,8.14
2023-04-02T14:43:51.691Z,8.31
2023-04-02T14:46:19.820Z,8.36
2023-04-02T14:48:54.496Z,8.30
2023-04-02T14:51:28.042Z,8.30
2023-04-02T14:54:02.922Z,8.19
2023-04-02T14:56:37.716Z,8.00
2023-04-02T14:59:22.046Z,7.70
2023-04-02T15:01:53.464Z,7.57
2023-04-02T15:04:28.870Z,7.77
2023-04-02T15:07:03.020Z,7.77
2023-04-02T15:09:39.643Z,7.68
2023-04-02T15:12:11.548Z,7.77
2023-04-02T15:14:44.570Z,7.84
2023-04-02T15:17:13.361Z,7.78
2023-04-02T15:19:42.732Z,7.89
2023-04-02T15:22:28.607Z,7.76
2023-04-02T15:25:10.529Z,7.66
2023-04-02T15:27:53.132Z,7.61
2023-04-02T15:30:25.968Z,7.71
2023-04-02T15:32:57.305Z,7.88
2023-04-02T15:35:37.724Z,7.85
2023-04-02T15:38:15.522Z,8.05
2023-04-02T15:40:54.600Z,8.15
2023-04-02T15:43:27.609Z,8.29
2023-04-02T15:46:07.792Z,8.20
2023-04-02T15:49:00.119Z,8.09
2023-04-02T15:51:47.239Z,8.14
2023-04-02T15:54:38.069Z,8.03
2023-04-02T15:57:21.097Z,8.08
2023-04-02T16:00:22.349Z,7.76
2023-04-02T16:03:23.106Z,7.67
2023-04-02T16:06:03.830Z,7.80
2023-04-02T16:08:57.102Z,7.73
2023-04-02T16:11:27.427Z,7.36
2023-04-02T16:14:02.172Z,7.38
2023-04-02T16:16:33.734Z,7.55
2023-04-02T16:19:16.071Z,7.51
2023-04-02T16:21:49.995Z,7.51
2023-04-02T16:24:19.741Z,7.33
2023-04-02T16:26:57.308Z,7.27
2023-04-02T16:29:54.850Z,7.43
2023-04-02T16:32:39.888Z,7.24
2023-04-02T16:35:42.670Z,7.29
2023-04-02T16:38:20.100Z,7.35
2023-04-02T16:41:07.910Z,7.27
2023-04-02T16:43:47.385Z,7.23
2023-04-02T16:46:38.332Z,7.13
2023-04-02T16:49:19.508Z,7.14
2023-04-02T16:51:58.383Z,7.12
2023-04-02T16:54:36.888Z,7.05
2023-04-02T16:57:24.321Z,6.79
2023-04-02T17:00:26.863Z,6.84
2023-04-02T17:03:05.752Z,6.77
2023-04-02T17:05:36.163Z,6.74
2023-04-02T17:08:15.788Z,6.70
2023-04-02T17:10:51.484Z,6.63
2023-04-02T17:13:27.893Z,6.64
2023-04-02T17:16:12.973Z,6.59
2023-04-02T17:18:43.540Z,6.50
2023-04-02T17:21:15.361Z,6.60
2023-04-02T17:23:55.948Z,6.61
2023-04-02T17:26:28.003Z,6.61
2023-04-02T17:28:59.472Z,6.51
2023-04-02T17:31:33.906Z,6.39
2023-04-02T17:34:11.062Z,6.42
2023-04-02T17:36:48.396Z,6.35
2023-04-02T17:39:23.591Z,6.22
2023-04-02T17:41:59.497Z,6.21
2023-04-02T17:44:43.005Z,6.13
2023-04-02T17:47:18.675Z,6.03
2023-04-02T17:49:58.186Z,5.95
2023-04-02T17:52:31.421Z,5.90
2023-04-02T17:55:14.569Z,5.76
2023-04-02T17:57:55.231Z,5.77
2023-04-02T18:03:50.556Z,5.78
2023-04-02T18:06:22.364Z,5.75
2023-04-02T18:09:04.249Z,5.77
2023-04-02T18:11:41.182Z,5.83
2023-04-02T18:14:25.257Z,5.81
2023-04-02T18:17:02.726Z,5.57
2023-04-02T18:19:40.416Z,5.44
2023-04-02T18:22:17.908Z,5.33
2023-04-02T18:25:05.609Z,5.30
2023-04-02T18:27:46.303Z,5.19
2023-04-02T18:30:24.156Z,5.02
2023-04-02T18:33:22.818Z,5.03
2023-04-02T18:36:00.873Z,5.07
2023-04-02T18:38:39.443Z,5.10
2023-04-02T18:41:19.183Z,5.06
2023-04-02T18:44:01.437Z,5.19
2023-04-02T18:46:38.447Z,5.11
2023-04-02T18:49:21.655Z,5.13
2023-04-02T18:51:55.752Z,5.08
2023-04-02T18:54:28.545Z,5.11
2023-04-02T18:56:56.527Z,4.99
2023-04-02T18:59:34.798Z,5.04
2023-04-02T19:02:25.028Z,5.04
2023-04-02T19:05:01.401Z,4.93
2023-04-02T19:07:32.809Z,4.84
2023-04-02T19:10:10.086Z,4.77
2023-04-02T19:12:38.044Z,4.75
2023-04-02T19:15:16.249Z,4.82
2023-04-02T19:17:49.299Z,4.72
2023-04-02T19:20:31.617Z,4.51
2023-04-02T19:23:15.193Z,4.52
2023-04-02T19:25:59.801Z,4.54
2023-04-02T19:28:32.422Z,4.48
2023-04-02T19:31:12.632Z,4.52
2023-04-02T19:33:50.743Z,4.47
2023-04-02T19:36:38.772Z,4.45
2023-04-02T19:39:28.982Z,4.28
2023-04-02T19:42:04.286Z,4.32
2023-04-02T19:44:32.140Z,4.33
2023-04-02T19:47:00.056Z,4.36
2023-04-02T19:49:31.710Z,4.44
2023-04-02T19:52:00.988Z,4.39
2023-04-02T19:54:28.948Z,4.40
2023-04-02T19:56:56.820Z,4.36
2023-04-02T19:59:24.854Z,4.38
2023-04-02T20:01:52.821Z,4.68
2023-04-02T20:04:20.765Z,4.66
2023-04-02T20:06:48.720Z,4.65
2023-04-02T20:09:18.022Z,4.60
2023-04-02T20:11:45.854Z,4.42
2023-04-02T20:14:13.690Z,4.34
2023-04-02T20:16:42.711Z,4.39
2023-04-02T20:19:12.386Z,4.31
2023-04-02T20:21:40.369Z,4.12
2023-04-02T20:24:09.035Z,4.06
2023-04-02T20:26:38.270Z,3.98
2023-04-02T20:29:06.342Z,3.93
2023-04-02T20:31:34.266Z,3.85
2023-04-02T20:34:05.046Z,3.78
2023-04-02T20:36:33.233Z,3.86
2023-04-02T20:39:01.052Z,3.98
2023-04-02T20:41:28.988Z,4.04
2023-04-02T20:43:58.321Z,4.03
2023-04-02T20:46:26.380Z,4.04
2023-04-02T20:48:54.376Z,3.97
2023-04-02T20:51:22.247Z,3.74
2023-04-02T20:53:50.034Z,3.81
2023-04-02T20:56:20.143Z,3.74
2023-04-02T20:58:48.076Z,3.71
2023-04-02T21:01:20.110Z,3.68
2023-04-02T21:03:48.326Z,3.63
2023-04-02T21:06:17.581Z,3.45
2023-04-02T21:08:46.360Z,3.49
2023-04-02T21:11:14.261Z,3.48
2023-04-02T21:13:44.191Z,3.41
2023-04-02T21:16:16.139Z,3.37
2023-04-02T21:18:45.888Z,3.45
2023-04-02T21:21:15.492Z,3.38
2023-04-02T21:23:45.157Z,3.36
2023-04-02T21:26:14.936Z,3.13
2023-04-02T21:28:43.378Z,3.18
2023-04-02T21:31:14.941Z,3.12
2023-04-02T21:33:46.164Z,3.07
2023-04-02T21:36:16.061Z,3.14
2023-04-02T21:38:44.088Z,3.19
2023-04-02T21:41:16.301Z,3.16
2023-04-02T21:43:44.546Z,3.27
2023-04-02T21:46:13.278Z,3.33
2023-04-02T21:48:41.882Z,3.40
2023-04-02T21:51:13.560Z,3.15
2023-04-02T21:53:42.343Z,3.09
2023-04-02T21:56:13.221Z,3.02
2023-04-02T21:58:41.057Z,3.23
2023-04-02T22:01:13.984Z,3.54
2023-04-02T22:03:48.291Z,3.50
2023-04-02T22:06:19.796Z,3.28
2023-04-02T22:08:49.562Z,3.33
2023-04-02T22:11:19.221Z,3.51
2023-04-02T22:13:48.799Z,3.37
2023-04-02T22:16:19.282Z,3.12
2023-04-02T22:18:48.190Z,3.08
2023-04-02T22:21:17.730Z,2.92
2023-04-02T22:23:46.440Z,3.00
2023-04-02T22:26:16.285Z,2.88
2023-04-02T22:28:44.202Z,2.83
2023-04-02T22:31:14.722Z,2.92
2023-04-02T22:33:45.766Z,2.61
2023-04-02T22:36:15.468Z,2.70
2023-04-02T22:38:45.077Z,2.73
2023-04-02T22:41:14.575Z,2.66
2023-04-02T22:43:44.104Z,2.82
2023-04-02T22:46:13.502Z,2.85
2023-04-02T22:48:42.173Z,2.94
2023-04-02T22:51:12.055Z,3.05
2023-04-02T22:53:39.869Z,2.92
2023-04-02T22:56:10.395Z,2.81
2023-04-02T22:58:39.272Z,2.77
2023-04-02T23:01:08.798Z,2.65
2023-04-02T23:03:36.791Z,2.69
2023-04-02T23:06:07.369Z,2.65
2023-04-02T23:08:35.481Z,2.38
2023-04-02T23:11:05.532Z,2.28
2023-04-02T23:13:35.119Z,2.43
2023-04-02T23:16:03.850Z,2.28
2023-04-02T23:18:32.910Z,2.37
2023-04-02T23:21:01.127Z,2.28
2023-04-02T23:23:29.287Z,2.51
2023-04-02T23:26:05.101Z,2.59
2023-04-02T23:28:34.580Z,2.34
2023-04-02T23:31:03.427Z,2.42
2023-04-02T23:33:31.381Z,2.65
2023-04-02T23:35:59.380Z,2.61
2023-04-02T23:38:28.134Z,2.47
2023-04-02T23:40:55.954Z,2.45
2023-04-02T23:43:23.824Z,2.68
2023-04-02T23:45:52.965Z,2.76
2023-04-02T23:48:20.880Z,2.60
2023-04-02T23:50:48.800Z,2.46
2023-04-02T23:53:18.611Z,2.67
2023-04-02T23:55:46.553Z,2.86
2023-04-02T23:58:14.704Z,2.71
